createdAt,value
2018-12-16T00:00:36.911Z,13.57
2018-12-16T00:03:04.366Z,6.27
2018-12-16T00:05:31.899Z,10.93
2018-12-16T00:07:59.358Z,11.30
2018-12-16T00:10:26.846Z,7.60
2018-12-16T00:12:54.302Z,8.93
2018-12-16T00:15:21.818Z,7.10
2018-12-16T00:17:49.303Z,11.50
2018-12-16T00:20:16.841Z,11.63
2018-12-16T00:22:44.382Z,10.03
2018-12-16T00:25:11.891Z,11.47
2018-12-16T00:27:39.371Z,9.83
2018-12-16T00:30:06.952Z,8.23
2018-12-16T00:32:34.477Z,7.17
2018-12-16T00:35:01.928Z,12.13
2018-12-16T00:37:29.409Z,10.30
2018-12-16T00:39:56.873Z,10.30
2018-12-16T00:42:24.459Z,12.47
2018-12-16T00:44:51.939Z,7.90
2018-12-16T00:47:19.507Z,7.73
2018-12-16T00:49:46.967Z,10.23
2018-12-16T00:52:14.449Z,12.43
2018-12-16T00:54:42.013Z,12.90
2018-12-16T00:57:09.483Z,12.67
2018-12-16T00:59:36.944Z,9.30
2018-12-16T01:02:06.425Z,8.93
2018-12-16T01:04:33.919Z,13.73
2018-12-16T01:07:01.459Z,13.00
2018-12-16T01:09:28.963Z,7.10
2018-12-16T01:11:56.419Z,13.80
2018-12-16T01:14:23.869Z,13.50
2018-12-16T01:16:51.351Z,13.30
2018-12-16T01:19:18.866Z,7.30
2018-12-16T01:21:46.318Z,9.00
2018-12-16T01:24:13.889Z,7.57
2018-12-16T01:26:41.366Z,7.57
2018-12-16T01:29:08.890Z,14.10
2018-12-16T01:31:36.397Z,12.40
2018-12-16T01:34:03.837Z,13.63
2018-12-16T01:36:31.325Z,13.30
2018-12-16T01:38:58.770Z,9.57
2018-12-16T01:41:26.237Z,12.57
2018-12-16T01:43:53.757Z,13.90
2018-12-16T01:46:21.228Z,14.53
2018-12-16T01:48:48.735Z,13.20
2018-12-16T01:51:16.237Z,14.63
2018-12-16T01:53:43.695Z,15.90
2018-12-16T01:56:11.171Z,15.37
2018-12-16T01:58:38.617Z,15.83
2018-12-16T02:01:06.337Z,6.23
2018-12-16T02:03:34.053Z,12.53
2018-12-16T02:06:01.495Z,11.27
2018-12-16T02:08:29.086Z,9.80
2018-12-16T02:10:56.566Z,10.10
2018-12-16T02:13:24.026Z,10.10
2018-12-16T02:15:52.561Z,10.70
2018-12-16T02:18:20.046Z,13.80
2018-12-16T02:20:47.492Z,14.50
2018-12-16T02:23:14.959Z,9.43
2018-12-16T02:25:42.428Z,17.40
2018-12-16T02:28:09.909Z,13.37
2018-12-16T02:30:37.379Z,13.00
2018-12-16T02:33:04.825Z,14.50
2018-12-16T02:35:32.297Z,12.90
2018-12-16T02:37:59.753Z,10.93
2018-12-16T02:40:27.222Z,11.87
2018-12-16T02:42:54.675Z,10.00
2018-12-16T02:45:22.318Z,8.60
2018-12-16T02:47:49.816Z,9.43
2018-12-16T02:50:17.288Z,12.40
2018-12-16T02:52:44.806Z,13.20
2018-12-16T02:55:12.443Z,15.97
2018-12-16T02:57:39.910Z,10.90
2018-12-16T03:00:08.089Z,12.47
2018-12-16T03:02:35.608Z,13.70
2018-12-16T03:05:03.186Z,15.90
2018-12-16T03:07:30.665Z,17.10
2018-12-16T03:09:58.131Z,12.07
2018-12-16T03:12:25.608Z,12.67
2018-12-16T03:14:53.055Z,9.27
2018-12-16T03:17:20.528Z,16.73
2018-12-16T03:19:47.988Z,12.53
2018-12-16T03:22:15.463Z,14.07
2018-12-16T03:24:42.943Z,18.50
2018-12-16T03:27:10.523Z,8.93
2018-12-16T03:29:38.003Z,18.80
2018-12-16T03:32:05.484Z,17.97
2018-12-16T03:34:32.981Z,17.43
2018-12-16T03:37:00.426Z,18.07
2018-12-16T03:39:27.889Z,6.27
2018-12-16T03:41:55.418Z,6.83
2018-12-16T03:44:22.859Z,14.27
2018-12-16T03:46:50.320Z,12.50
2018-12-16T03:49:17.842Z,10.90
2018-12-16T03:51:45.296Z,7.20
2018-12-16T03:54:12.790Z,12.07
2018-12-16T03:56:40.244Z,11.40
2018-12-16T03:59:15.346Z,17.07
2018-12-16T04:01:43.003Z,16.33
2018-12-16T04:04:10.485Z,17.30
2018-12-16T04:06:37.964Z,16.50
2018-12-16T04:09:05.632Z,13.60
2018-12-16T04:11:33.142Z,16.77
2018-12-16T04:14:00.600Z,18.63
2018-12-16T04:16:28.089Z,17.40
2018-12-16T04:18:55.556Z,17.67
2018-12-16T04:21:23.021Z,18.20
2018-12-16T04:23:50.496Z,16.57
2018-12-16T04:26:17.959Z,11.60
2018-12-16T04:28:45.450Z,16.40
2018-12-16T04:31:13.066Z,17.60
2018-12-16T04:33:40.534Z,16.50
2018-12-16T04:36:08.010Z,14.57
2018-12-16T04:38:35.486Z,12.70
2018-12-16T04:41:02.969Z,12.30
2018-12-16T04:43:30.499Z,8.93
2018-12-16T04:45:57.991Z,10.80
2018-12-16T04:48:25.450Z,13.60
2018-12-16T04:50:52.987Z,16.80
2018-12-16T04:53:20.462Z,14.43
2018-12-16T04:55:47.928Z,12.80
2018-12-16T04:58:15.395Z,19.03
2018-12-16T05:00:42.858Z,19.57
2018-12-16T05:03:10.353Z,10.57
2018-12-16T05:05:37.810Z,17.57
2018-12-16T05:08:05.269Z,18.30
2018-12-16T05:10:32.747Z,10.63
2018-12-16T05:13:00.204Z,18.40
2018-12-16T05:15:27.713Z,18.77
2018-12-16T05:17:55.187Z,10.27
2018-12-16T05:20:22.652Z,18.57
2018-12-16T05:22:50.138Z,9.33
2018-12-16T05:25:17.600Z,13.40
2018-12-16T05:27:45.087Z,21.10
2018-12-16T05:30:12.638Z,18.70
2018-12-16T05:32:40.134Z,18.57
2018-12-16T05:35:07.674Z,20.07
2018-12-16T05:37:35.135Z,19.50
2018-12-16T05:40:02.652Z,17.70
2018-12-16T05:42:30.159Z,15.03
2018-12-16T05:44:57.623Z,19.20
2018-12-16T05:47:25.111Z,18.20
2018-12-16T05:49:52.820Z,20.50
2018-12-16T05:52:20.302Z,19.63
2018-12-16T05:54:47.811Z,18.40
2018-12-16T05:57:15.290Z,19.30
2018-12-16T05:59:42.835Z,19.30
2018-12-16T06:02:10.350Z,18.83
2018-12-16T06:04:37.863Z,13.90
2018-12-16T06:07:05.350Z,18.17
2018-12-16T06:09:32.859Z,15.60
2018-12-16T06:12:00.313Z,18.83
2018-12-16T06:14:27.874Z,17.57
2018-12-16T06:16:55.334Z,17.30
2018-12-16T06:19:22.794Z,19.20
2018-12-16T06:21:50.274Z,11.93
2018-12-16T06:24:17.738Z,17.73
2018-12-16T06:26:45.250Z,13.93
2018-12-16T06:29:12.727Z,18.60
2018-12-16T06:31:40.208Z,20.40
2018-12-16T06:34:07.755Z,20.27
2018-12-16T06:36:35.258Z,18.67
2018-12-16T06:39:03.393Z,16.00
2018-12-16T06:41:30.840Z,19.27
2018-12-16T06:43:58.310Z,19.80
2018-12-16T06:46:25.795Z,17.73
2018-12-16T06:48:53.252Z,14.77
2018-12-16T06:51:20.698Z,15.87
2018-12-16T06:53:48.186Z,16.40
2018-12-16T06:56:15.653Z,16.87
2018-12-16T06:58:43.134Z,5.43
2018-12-16T07:01:10.587Z,20.13
2018-12-16T07:03:38.057Z,20.30
2018-12-16T07:06:05.510Z,15.70
2018-12-16T07:08:32.990Z,21.07
2018-12-16T07:11:00.435Z,20.17
2018-12-16T07:13:27.976Z,16.50
2018-12-16T07:15:55.511Z,18.83
2018-12-16T07:18:22.963Z,18.77
2018-12-16T07:20:50.437Z,17.30
2018-12-16T07:23:17.925Z,21.90
2018-12-16T07:25:45.406Z,18.37
2018-12-16T07:28:12.920Z,20.40
2018-12-16T07:30:40.487Z,19.40
2018-12-16T07:33:07.950Z,19.50
2018-12-16T07:35:35.482Z,22.40
2018-12-16T07:38:02.946Z,19.63
2018-12-16T07:40:30.402Z,21.47
2018-12-16T07:42:57.893Z,15.73
2018-12-16T07:45:25.373Z,9.37
2018-12-16T07:47:52.862Z,20.30
2018-12-16T07:50:20.371Z,21.97
2018-12-16T07:52:47.901Z,20.47
2018-12-16T07:55:15.437Z,20.77
2018-12-16T07:57:42.891Z,21.40
2018-12-16T08:00:10.578Z,20.93
2018-12-16T08:02:38.091Z,17.83
2018-12-16T08:05:05.664Z,17.87
2018-12-16T08:07:33.138Z,22.87
2018-12-16T08:10:00.667Z,19.57
2018-12-16T08:12:28.131Z,20.70
2018-12-16T08:14:55.682Z,17.67
2018-12-16T08:17:23.168Z,22.47
2018-12-16T08:19:50.754Z,21.10
2018-12-16T08:22:18.218Z,18.20
2018-12-16T08:24:45.670Z,21.57
2018-12-16T08:27:13.204Z,17.77
2018-12-16T08:29:40.710Z,23.13
2018-12-16T08:32:08.193Z,23.37
2018-12-16T08:34:35.642Z,22.70
2018-12-16T08:37:03.217Z,21.30
2018-12-16T08:39:30.708Z,22.30
2018-12-16T08:41:58.200Z,22.10
2018-12-16T08:44:25.649Z,19.40
2018-12-16T08:46:53.187Z,21.10
2018-12-16T08:49:20.649Z,19.77
2018-12-16T08:51:48.163Z,19.97
2018-12-16T08:54:15.735Z,23.37
2018-12-16T08:56:43.185Z,21.93
2018-12-16T08:59:10.671Z,18.87
2018-12-16T09:01:38.121Z,22.60
2018-12-16T09:04:05.728Z,23.17
2018-12-16T09:06:33.208Z,16.13
2018-12-16T09:09:01.245Z,21.57
2018-12-16T09:11:28.775Z,23.63
2018-12-16T09:13:56.322Z,20.03
2018-12-16T09:16:23.841Z,19.07
2018-12-16T09:18:51.301Z,20.03
2018-12-16T09:21:18.779Z,23.30
2018-12-16T09:23:46.266Z,20.93
2018-12-16T09:26:13.749Z,19.47
2018-12-16T09:28:41.294Z,23.77
2018-12-16T09:31:08.806Z,20.00
2018-12-16T09:33:36.293Z,19.60
2018-12-16T09:36:03.790Z,22.23
2018-12-16T09:38:31.283Z,23.27
2018-12-16T09:40:58.757Z,23.57
2018-12-16T09:43:26.271Z,22.17
2018-12-16T09:45:53.718Z,24.70
2018-12-16T09:48:21.194Z,26.77
2018-12-16T09:50:48.694Z,24.00
2018-12-16T09:53:16.177Z,21.47
2018-12-16T09:55:43.662Z,24.37
2018-12-16T09:58:11.163Z,24.60
2018-12-16T10:00:38.666Z,25.73
2018-12-16T10:03:06.141Z,23.17
2018-12-16T10:05:33.646Z,24.67
2018-12-16T10:08:01.130Z,23.70
2018-12-16T10:10:28.619Z,26.37
2018-12-16T10:12:56.098Z,24.37
2018-12-16T10:15:23.553Z,23.70
2018-12-16T10:17:51.261Z,25.70
2018-12-16T10:20:18.832Z,24.73
2018-12-16T10:22:46.290Z,25.80
2018-12-16T10:25:13.741Z,25.47
2018-12-16T10:27:41.208Z,28.03
2018-12-16T10:30:09.365Z,27.27
2018-12-16T10:32:37.585Z,27.17
2018-12-16T10:35:05.561Z,25.23
2018-12-16T10:37:33.038Z,24.97
2018-12-16T10:40:00.518Z,23.07
2018-12-16T10:42:27.971Z,24.07
2018-12-16T10:44:55.444Z,24.90
2018-12-16T10:47:22.910Z,24.33
2018-12-16T10:49:50.403Z,26.10
2018-12-16T10:52:17.888Z,25.50
2018-12-16T10:54:45.374Z,26.40
2018-12-16T10:57:12.838Z,28.10
2018-12-16T10:59:40.309Z,22.50
2018-12-16T11:02:07.834Z,22.17
2018-12-16T11:04:35.310Z,26.80
2018-12-16T11:07:02.794Z,28.23
2018-12-16T11:09:30.250Z,21.90
2018-12-16T11:11:57.730Z,25.33
2018-12-16T11:14:25.224Z,25.23
2018-12-16T11:16:52.682Z,24.50
2018-12-16T11:19:20.247Z,24.23
2018-12-16T11:21:47.724Z,23.37
2018-12-16T11:24:15.197Z,24.27
2018-12-16T11:26:42.706Z,26.40
2018-12-16T11:29:10.194Z,27.50
2018-12-16T11:31:37.687Z,28.10
2018-12-16T11:34:06.066Z,26.87
2018-12-16T11:36:33.526Z,28.90
2018-12-16T11:39:01.107Z,27.37
2018-12-16T11:41:28.590Z,26.30
2018-12-16T11:43:56.039Z,24.97
2018-12-16T11:46:23.522Z,26.63
2018-12-16T11:48:50.978Z,27.07
2018-12-16T11:51:18.442Z,30.97
2018-12-16T11:53:45.921Z,28.27
2018-12-16T11:56:13.909Z,26.70
2018-12-16T11:58:41.488Z,24.90
2018-12-16T12:01:09.057Z,26.80
2018-12-16T12:03:36.548Z,31.63
2018-12-16T12:06:04.108Z,29.80
2018-12-16T12:08:31.598Z,27.43
2018-12-16T12:10:59.061Z,31.23
2018-12-16T12:13:26.557Z,23.80
2018-12-16T12:15:54.106Z,25.87
2018-12-16T12:18:21.603Z,26.67
2018-12-16T12:20:49.133Z,26.63
2018-12-16T12:23:16.636Z,28.20
2018-12-16T12:25:44.083Z,24.90
2018-12-16T12:28:11.601Z,30.87
2018-12-16T12:30:39.058Z,26.23
2018-12-16T12:33:06.546Z,26.67
2018-12-16T12:35:34.006Z,28.67
2018-12-16T12:38:01.475Z,29.63
2018-12-16T12:40:28.942Z,29.97
2018-12-16T12:42:56.417Z,26.33
2018-12-16T12:45:23.902Z,30.97
2018-12-16T12:47:51.357Z,28.60
2018-12-16T12:50:18.846Z,32.10
2018-12-16T12:52:46.337Z,26.13
2018-12-16T12:55:13.879Z,25.77
2018-12-16T12:57:41.338Z,27.60
2018-12-16T13:00:11.915Z,28.37
2018-12-16T13:02:39.409Z,26.40
2018-12-16T13:05:06.934Z,25.33
2018-12-16T13:07:34.394Z,25.67
2018-12-16T13:10:01.935Z,25.03
2018-12-16T13:12:29.495Z,28.23
2018-12-16T13:14:56.982Z,29.17
2018-12-16T13:17:24.465Z,23.67
2018-12-16T13:19:51.918Z,21.53
2018-12-16T13:22:19.406Z,24.60
2018-12-16T13:24:58.734Z,21.40
2018-12-16T13:27:26.246Z,28.13
2018-12-16T13:29:53.725Z,27.80
2018-12-16T13:32:21.185Z,30.47
2018-12-16T13:34:48.662Z,27.67
2018-12-16T13:37:16.150Z,34.13
2018-12-16T13:39:43.641Z,30.80
2018-12-16T13:42:11.090Z,24.17
2018-12-16T13:44:38.584Z,29.60
2018-12-16T13:47:06.035Z,32.37
2018-12-16T13:49:33.498Z,31.67
2018-12-16T13:52:00.959Z,35.47
2018-12-16T13:54:28.483Z,30.40
2018-12-16T13:56:55.953Z,26.17
2018-12-16T13:59:23.456Z,28.77
2018-12-16T14:01:50.906Z,32.57
2018-12-16T14:04:18.379Z,20.07
2018-12-16T14:06:45.916Z,26.37
2018-12-16T14:09:13.367Z,25.60
2018-12-16T14:11:40.842Z,23.83
2018-12-16T14:14:08.289Z,23.90
2018-12-16T14:16:35.763Z,18.80
2018-12-16T14:19:03.273Z,24.50
2018-12-16T14:21:30.767Z,20.87
2018-12-16T14:23:58.222Z,22.50
2018-12-16T14:26:25.685Z,24.03
2018-12-16T14:28:53.241Z,18.90
2018-12-16T14:31:20.750Z,19.63
2018-12-16T14:33:48.221Z,22.50
2018-12-16T14:36:15.747Z,20.77
2018-12-16T14:38:43.207Z,23.07
2018-12-16T14:41:10.683Z,27.10
2018-12-16T14:43:38.150Z,23.30
2018-12-16T14:46:05.615Z,22.83
2018-12-16T14:48:33.081Z,20.37
2018-12-16T14:51:00.558Z,15.90
2018-12-16T14:53:28.078Z,19.30
2018-12-16T14:55:55.626Z,18.30
2018-12-16T14:58:23.149Z,24.00
2018-12-16T15:00:50.697Z,21.57
2018-12-16T15:03:18.229Z,19.50
2018-12-16T15:05:45.753Z,19.10
2018-12-16T15:08:13.202Z,20.67
2018-12-16T15:10:40.674Z,23.50
2018-12-16T15:13:08.402Z,18.17
2018-12-16T15:15:35.855Z,21.97
2018-12-16T15:18:03.382Z,21.17
2018-12-16T15:20:30.837Z,23.10
2018-12-16T15:22:58.330Z,23.43
2018-12-16T15:25:25.785Z,23.43
2018-12-16T15:27:53.236Z,21.33
2018-12-16T15:30:20.769Z,19.50
2018-12-16T15:32:48.213Z,23.87
2018-12-16T15:35:15.774Z,19.37
2018-12-16T15:37:43.269Z,27.30
2018-12-16T15:40:10.728Z,25.37
2018-12-16T15:42:38.186Z,27.67
2018-12-16T15:45:07.470Z,22.87
2018-12-16T15:47:34.930Z,28.50
2018-12-16T15:50:02.517Z,29.37
2018-12-16T15:52:29.982Z,25.37
2018-12-16T15:54:57.478Z,27.23
2018-12-16T15:57:25.000Z,32.30
2018-12-16T15:59:52.461Z,29.60
2018-12-16T16:02:19.930Z,35.77
2018-12-16T16:04:47.516Z,29.50
2018-12-16T16:07:15.037Z,28.90
2018-12-16T16:09:42.526Z,28.77
2018-12-16T16:12:10.010Z,32.93
2018-12-16T16:14:37.486Z,35.57
2018-12-16T16:17:04.962Z,24.30
2018-12-16T16:19:32.454Z,25.53
2018-12-16T16:22:00.026Z,29.40
2018-12-16T16:24:27.479Z,30.53
2018-12-16T16:26:55.047Z,25.10
2018-12-16T16:29:22.554Z,31.93
2018-12-16T16:31:50.042Z,29.97
2018-12-16T16:34:17.519Z,23.93
2018-12-16T16:36:45.001Z,25.00
2018-12-16T16:39:12.507Z,28.33
2018-12-16T16:41:39.970Z,35.30
2018-12-16T16:44:07.478Z,29.20
2018-12-16T16:46:34.953Z,32.00
2018-12-16T16:49:02.431Z,29.97
2018-12-16T16:51:29.883Z,32.33
2018-12-16T16:53:57.362Z,28.30
2018-12-16T16:56:24.904Z,28.67
2018-12-16T16:58:52.379Z,27.37
2018-12-16T17:01:19.834Z,32.20
2018-12-16T17:03:47.343Z,30.97
2018-12-16T17:06:14.830Z,28.97
2018-12-16T17:08:42.290Z,27.70
2018-12-16T17:11:09.970Z,33.37
2018-12-16T17:13:37.429Z,35.40
2018-12-16T17:16:05.038Z,32.40
2018-12-16T17:18:32.493Z,37.57
2018-12-16T17:20:59.966Z,25.97
2018-12-16T17:23:27.449Z,32.40
2018-12-16T17:25:54.910Z,34.17
2018-12-16T17:28:22.394Z,33.53
2018-12-16T17:30:49.865Z,32.63
2018-12-16T17:33:17.346Z,26.40
2018-12-16T17:35:44.841Z,31.50
2018-12-16T17:38:12.298Z,24.57
2018-12-16T17:40:39.778Z,31.70
2018-12-16T17:43:07.232Z,29.00
2018-12-16T17:45:34.707Z,23.37
2018-12-16T17:48:02.300Z,27.47
2018-12-16T17:50:29.773Z,24.40
2018-12-16T17:52:57.234Z,20.57
2018-12-16T17:55:24.710Z,22.57
2018-12-16T17:57:52.174Z,23.93
2018-12-16T18:00:19.842Z,17.03
2018-12-16T18:02:47.292Z,19.70
2018-12-16T18:05:14.835Z,21.63
2018-12-16T18:07:43.202Z,21.50
2018-12-16T18:10:10.681Z,18.07
2018-12-16T18:12:38.154Z,19.80
2018-12-16T18:15:07.663Z,20.07
2018-12-16T18:17:35.243Z,21.57
2018-12-16T18:20:03.254Z,21.03
2018-12-16T18:22:30.736Z,20.60
2018-12-16T18:24:58.369Z,20.60
2018-12-16T18:27:25.843Z,20.80
2018-12-16T18:29:53.306Z,16.17
2018-12-16T18:32:20.773Z,20.33
2018-12-16T18:34:49.827Z,18.03
2018-12-16T18:37:17.509Z,17.13
2018-12-16T18:39:44.973Z,17.87
2018-12-16T18:42:12.485Z,16.33
2018-12-16T18:44:40.723Z,16.60
2018-12-16T18:47:08.207Z,17.87
2018-12-16T18:49:35.665Z,17.83
2018-12-16T18:52:03.143Z,18.13
2018-12-16T18:54:30.591Z,16.70
2018-12-16T18:56:58.067Z,20.73
2018-12-16T18:59:25.656Z,17.33
2018-12-16T19:01:53.144Z,14.03
2018-12-16T19:04:21.290Z,16.40
2018-12-16T19:06:48.741Z,16.00
2018-12-16T19:09:16.227Z,11.20
2018-12-16T19:11:43.736Z,15.37
2018-12-16T19:14:11.211Z,13.87
2018-12-16T19:16:38.715Z,15.83
2018-12-16T19:19:06.541Z,15.70
2018-12-16T19:21:34.053Z,17.90
2018-12-16T19:24:01.538Z,15.30
2018-12-16T19:26:28.988Z,17.60
2018-12-16T19:28:56.517Z,16.33
2018-12-16T19:31:23.968Z,18.70
2018-12-16T19:33:51.426Z,18.50
2018-12-16T19:36:18.979Z,14.17
2018-12-16T19:38:46.446Z,14.90
2018-12-16T19:41:13.905Z,15.10
2018-12-16T19:43:41.369Z,15.83
2018-12-16T19:46:08.895Z,18.67
2018-12-16T19:48:36.434Z,19.97
2018-12-16T19:51:03.977Z,16.17
2018-12-16T19:53:31.458Z,18.60
2018-12-16T19:55:58.983Z,18.90
2018-12-16T19:58:26.811Z,17.03
2018-12-16T20:00:54.330Z,14.47
2018-12-16T20:03:21.819Z,19.07
2018-12-16T20:05:55.044Z,14.40
2018-12-16T20:08:22.622Z,17.33
2018-12-16T20:10:51.688Z,19.13
2018-12-16T20:13:19.424Z,14.07
2018-12-16T20:15:47.064Z,18.93
2018-12-16T20:18:14.680Z,16.17
2018-12-16T20:20:42.438Z,12.97
2018-12-16T20:23:10.104Z,18.27
2018-12-16T20:25:38.297Z,17.37
2018-12-16T20:28:05.999Z,18.23
2018-12-16T20:30:33.759Z,18.27
2018-12-16T20:33:01.644Z,22.30
2018-12-16T20:35:29.788Z,18.20
2018-12-16T20:37:57.791Z,23.90
2018-12-16T20:40:26.012Z,18.87
2018-12-16T20:42:54.172Z,20.03
2018-12-16T20:45:21.887Z,19.53
2018-12-16T20:47:49.701Z,19.13
2018-12-16T20:50:17.443Z,19.83
2018-12-16T20:52:45.275Z,22.00
2018-12-16T20:55:13.124Z,25.00
2018-12-16T20:57:41.706Z,21.90
2018-12-16T21:00:09.580Z,16.47
2018-12-16T21:02:37.336Z,17.50
2018-12-16T21:05:05.443Z,18.30
2018-12-16T21:07:33.755Z,22.63
2018-12-16T21:10:01.332Z,19.20
2018-12-16T21:12:34.799Z,19.97
2018-12-16T21:15:08.062Z,19.40
2018-12-16T21:17:41.359Z,21.70
2018-12-16T21:20:08.949Z,18.83
2018-12-16T21:22:36.517Z,13.17
2018-12-16T21:25:04.773Z,17.07
2018-12-16T21:27:33.086Z,14.87
2018-12-16T21:30:00.533Z,16.30
2018-12-16T21:32:28.113Z,16.47
2018-12-16T21:34:55.581Z,17.53
2018-12-16T21:37:23.057Z,19.53
2018-12-16T21:39:50.572Z,21.47
2018-12-16T21:42:18.051Z,14.50
2018-12-16T21:44:45.510Z,15.57
2018-12-16T21:47:13.075Z,23.03
2018-12-16T21:49:40.554Z,19.53
2018-12-16T21:52:08.044Z,18.10
2018-12-16T21:54:35.599Z,17.90
2018-12-16T21:57:03.131Z,23.50
2018-12-16T21:59:30.953Z,22.83
2018-12-16T22:01:58.520Z,16.53
2018-12-16T22:04:25.966Z,17.63
2018-12-16T22:06:53.424Z,18.43
2018-12-16T22:09:21.149Z,19.57
2018-12-16T22:11:48.709Z,20.97
2018-12-16T22:14:16.181Z,17.60
2018-12-16T22:16:43.634Z,18.00
2018-12-16T22:19:11.106Z,19.60
2018-12-16T22:21:38.558Z,21.57
2018-12-16T22:24:06.030Z,24.40
2018-12-16T22:26:33.510Z,21.43
2018-12-16T22:29:00.985Z,25.47
2018-12-16T22:31:28.464Z,25.33
2018-12-16T22:33:55.943Z,25.03
2018-12-16T22:36:23.395Z,26.97
2018-12-16T22:38:50.863Z,26.20
2018-12-16T22:41:18.342Z,27.40
2018-12-16T22:43:46.122Z,26.67
2018-12-16T22:46:13.835Z,25.07
2018-12-16T22:48:42.325Z,17.00
2018-12-16T22:51:10.053Z,12.87
2018-12-16T22:53:37.538Z,18.40
2018-12-16T22:56:05.025Z,18.03
2018-12-16T22:58:32.482Z,16.73
2018-12-16T23:03:50.907Z,16.50
2018-12-16T23:06:18.410Z,17.50
2018-12-16T23:08:45.884Z,21.20
2018-12-16T23:11:13.343Z,23.80
2018-12-16T23:13:40.897Z,17.60
2018-12-16T23:16:08.390Z,22.10
2018-12-16T23:18:35.860Z,21.97
2018-12-16T23:21:03.328Z,18.50
2018-12-16T23:23:30.801Z,13.20
2018-12-16T23:25:58.274Z,16.17
2018-12-16T23:28:25.778Z,9.73
2018-12-16T23:30:53.253Z,17.27
2018-12-16T23:33:20.722Z,17.03
2018-12-16T23:35:48.281Z,19.17
2018-12-16T23:38:15.753Z,14.27
2018-12-16T23:40:43.273Z,14.20
2018-12-16T23:43:10.754Z,17.00
2018-12-16T23:45:38.223Z,16.33
2018-12-16T23:48:05.683Z,15.23
2018-12-16T23:50:33.220Z,16.57
2018-12-16T23:53:00.675Z,16.37
2018-12-16T23:55:28.146Z,16.20
2018-12-16T23:58:00.973Z,16.90
